createdAt,value
2019-05-30T00:01:16.611Z,6.10
2019-05-30T00:03:46.029Z,6.10
2019-05-30T00:06:15.496Z,6.10
2019-05-30T00:08:44.877Z,6.00
2019-05-30T00:11:14.323Z,6.00
2019-05-30T00:13:43.747Z,6.10
2019-05-30T00:16:14.826Z,6.10
2019-05-30T00:18:45.877Z,6.10
2019-05-30T00:21:16.891Z,6.10
2019-05-30T00:23:46.241Z,6.20
2019-05-30T00:26:15.627Z,6.20
2019-05-30T00:28:44.969Z,6.30
2019-05-30T00:31:14.346Z,6.40
2019-05-30T00:33:43.771Z,6.50
2019-05-30T00:36:13.206Z,6.60
2019-05-30T00:38:42.555Z,6.70
2019-05-30T00:41:12.016Z,6.80
2019-05-30T00:43:41.422Z,6.90
2019-05-30T00:46:10.797Z,7.00
2019-05-30T00:48:40.160Z,7.10
2019-05-30T00:51:09.535Z,7.10
2019-05-30T00:53:38.918Z,7.10
2019-05-30T00:56:08.279Z,7.20
2019-05-30T00:58:37.622Z,7.20
2019-05-30T01:01:07.224Z,7.20
2019-05-30T01:03:36.563Z,7.20
2019-05-30T01:06:07.271Z,7.20
2019-05-30T01:08:36.698Z,7.10
2019-05-30T01:11:07.406Z,7.10
2019-05-30T01:13:36.939Z,7.10
2019-05-30T01:16:07.331Z,7.10
2019-05-30T01:18:36.782Z,7.10
2019-05-30T01:21:07.432Z,7.10
2019-05-30T01:23:38.550Z,7.10
2019-05-30T01:26:07.920Z,7.10
2019-05-30T01:28:37.258Z,7.10
2019-05-30T01:31:11.005Z,7.10
2019-05-30T01:33:37.771Z,7.20
2019-05-30T01:36:07.909Z,7.10
2019-05-30T01:38:37.467Z,7.10
2019-05-30T01:41:08.079Z,7.10
2019-05-30T01:43:37.597Z,7.10
2019-05-30T01:46:08.268Z,7.10
2019-05-30T01:48:37.747Z,7.10
2019-05-30T01:51:07.096Z,7.00
2019-05-30T01:53:36.457Z,6.90
2019-05-30T01:56:06.819Z,6.90
2019-05-30T01:58:36.269Z,6.80
2019-05-30T02:01:18.952Z,6.70
2019-05-30T02:03:36.844Z,6.70
2019-05-30T02:06:07.322Z,6.50
2019-05-30T02:08:36.818Z,6.50
2019-05-30T02:11:07.425Z,6.40
2019-05-30T02:13:36.882Z,6.40
2019-05-30T02:16:07.733Z,6.40
2019-05-30T02:18:37.179Z,6.30
2019-05-30T02:21:07.823Z,6.10
2019-05-30T02:23:37.301Z,6.00
2019-05-30T02:26:08.287Z,5.90
2019-05-30T02:28:37.654Z,5.90
2019-05-30T02:31:07.589Z,5.90
2019-05-30T02:33:38.065Z,5.90
2019-05-30T02:36:08.478Z,5.90
2019-05-30T02:38:38.666Z,5.90
2019-05-30T02:41:09.949Z,5.90
2019-05-30T02:43:39.379Z,6.00
2019-05-30T02:46:10.652Z,6.10
2019-05-30T02:48:57.316Z,6.10
2019-05-30T02:51:12.694Z,6.10
2019-05-30T02:53:42.373Z,6.20
2019-05-30T02:56:12.626Z,6.30
2019-05-30T02:58:42.453Z,6.30
2019-05-30T03:01:14.193Z,6.30
2019-05-30T03:03:42.897Z,6.40
2019-05-30T03:06:13.897Z,6.40
2019-05-30T03:08:43.744Z,6.30
2019-05-30T03:11:15.538Z,6.40
2019-05-30T03:13:44.770Z,6.30
2019-05-30T03:16:14.203Z,6.40
2019-05-30T03:18:43.626Z,6.30
2019-05-30T03:21:15.408Z,6.30
2019-05-30T03:23:44.358Z,6.20
2019-05-30T03:26:16.090Z,6.20
2019-05-30T03:28:45.020Z,6.20
2019-05-30T03:31:26.673Z,6.10
2019-05-30T03:33:47.362Z,6.10
2019-05-30T03:36:28.737Z,6.20
2019-05-30T03:38:48.049Z,6.10
2019-05-30T03:41:17.525Z,6.10
2019-05-30T03:43:46.897Z,6.10
2019-05-30T03:46:20.967Z,6.10
2019-05-30T03:48:53.477Z,6.20
2019-05-30T03:51:24.878Z,6.30
2019-05-30T03:53:54.895Z,6.20
2019-05-30T03:56:34.637Z,6.20
2019-05-30T03:59:13.080Z,6.40
2019-05-30T04:01:55.911Z,6.40
2019-05-30T04:04:31.474Z,6.40
2019-05-30T04:07:09.120Z,6.50
2019-05-30T04:09:48.167Z,6.60
2019-05-30T04:12:58.991Z,6.70
2019-05-30T04:15:36.390Z,6.80
2019-05-30T04:18:06.970Z,6.80
2019-05-30T04:20:36.684Z,6.90
2019-05-30T04:23:06.176Z,6.90
2019-05-30T04:25:35.563Z,7.00
2019-05-30T04:28:05.046Z,7.10
2019-05-30T04:30:34.508Z,7.20
2019-05-30T04:33:17.243Z,7.20
2019-05-30T04:35:35.082Z,7.10
2019-05-30T04:38:04.570Z,7.10
2019-05-30T04:40:34.013Z,7.10
2019-05-30T04:43:03.358Z,7.20
2019-05-30T04:45:32.795Z,7.40
2019-05-30T04:48:02.136Z,7.60
2019-05-30T04:50:31.615Z,7.70
2019-05-30T04:53:00.962Z,7.70
2019-05-30T04:55:30.399Z,7.70
2019-05-30T04:57:59.736Z,7.70
2019-05-30T05:00:29.177Z,7.60
2019-05-30T05:02:58.520Z,7.60
2019-05-30T05:05:28.028Z,7.70
2019-05-30T05:07:57.449Z,7.80
2019-05-30T05:10:26.906Z,8.00
2019-05-30T05:12:56.240Z,8.10
2019-05-30T05:15:25.740Z,8.30
2019-05-30T05:17:56.717Z,8.30
2019-05-30T05:20:26.149Z,8.40
2019-05-30T05:22:55.726Z,8.50
2019-05-30T05:25:25.088Z,8.60
2019-05-30T05:27:54.494Z,8.70
2019-05-30T05:30:24.428Z,8.70
2019-05-30T05:32:55.940Z,9.00
2019-05-30T05:35:25.309Z,9.30
2019-05-30T05:37:54.656Z,9.50
2019-05-30T05:40:24.439Z,10.00
2019-05-30T05:42:54.037Z,10.20
2019-05-30T05:45:24.682Z,10.10
2019-05-30T05:47:54.130Z,10.10
2019-05-30T05:50:24.608Z,10.30
2019-05-30T05:52:54.024Z,10.30
2019-05-30T05:55:23.409Z,10.30
2019-05-30T05:57:53.410Z,10.40
2019-05-30T06:00:23.345Z,10.50
2019-05-30T06:02:52.792Z,10.50
2019-05-30T06:05:22.328Z,10.70
2019-05-30T06:07:51.698Z,10.90
2019-05-30T06:10:21.748Z,11.20
2019-05-30T06:12:51.444Z,11.20
2019-05-30T06:15:20.894Z,11.30
2019-05-30T06:17:50.214Z,11.30
2019-05-30T06:20:19.727Z,11.30
2019-05-30T06:22:49.077Z,11.50
2019-05-30T06:25:21.533Z,11.60
2019-05-30T06:27:49.776Z,11.60
2019-05-30T06:30:20.363Z,11.70
2019-05-30T06:32:50.185Z,11.90
2019-05-30T06:35:21.475Z,12.00
2019-05-30T06:37:51.082Z,11.80
2019-05-30T06:40:23.741Z,11.70
2019-05-30T06:42:53.138Z,11.60
2019-05-30T06:45:24.075Z,11.50
2019-05-30T06:47:53.832Z,11.60
2019-05-30T06:50:24.619Z,11.70
2019-05-30T06:52:54.143Z,11.70
2019-05-30T06:55:23.562Z,11.80
2019-05-30T06:57:53.578Z,11.80
2019-05-30T07:00:26.415Z,11.80
2019-05-30T07:02:56.246Z,12.00
2019-05-30T07:05:27.865Z,12.10
2019-05-30T07:07:56.943Z,12.20
2019-05-30T07:10:26.850Z,12.40
2019-05-30T07:12:56.368Z,12.60
2019-05-30T07:15:27.148Z,12.70
2019-05-30T07:17:56.892Z,12.90
2019-05-30T07:20:27.454Z,13.10
2019-05-30T07:22:57.122Z,13.20
2019-05-30T07:25:27.782Z,13.40
2019-05-30T07:27:57.273Z,13.50
2019-05-30T07:30:27.913Z,13.70
2019-05-30T07:32:57.553Z,13.90
2019-05-30T07:35:27.972Z,14.10
2019-05-30T07:37:57.421Z,14.30
2019-05-30T07:40:26.937Z,14.20
2019-05-30T07:42:56.390Z,14.30
2019-05-30T07:45:26.780Z,14.50
2019-05-30T07:47:56.369Z,14.70
2019-05-30T07:50:26.326Z,14.80
2019-05-30T07:52:55.814Z,15.00
2019-05-30T07:55:25.231Z,15.00
2019-05-30T07:57:54.605Z,15.20
2019-05-30T08:00:24.207Z,15.40
2019-05-30T08:02:53.741Z,15.60
2019-05-30T08:05:24.802Z,15.90
2019-05-30T08:07:54.501Z,16.10
2019-05-30T08:10:24.082Z,16.20
2019-05-30T08:12:53.436Z,16.40
2019-05-30T08:15:23.017Z,16.20
2019-05-30T08:17:53.268Z,16.40
2019-05-30T08:20:24.326Z,16.50
2019-05-30T08:22:53.863Z,16.70
2019-05-30T08:25:23.257Z,16.90
2019-05-30T08:27:52.612Z,17.10
2019-05-30T08:30:23.611Z,17.30
2019-05-30T08:32:53.004Z,17.10
2019-05-30T08:35:38.379Z,17.20
2019-05-30T08:37:54.277Z,17.20
2019-05-30T08:40:23.756Z,17.50
2019-05-30T08:42:53.794Z,17.70
2019-05-30T08:45:23.346Z,17.70
2019-05-30T08:47:52.867Z,18.00
2019-05-30T08:50:22.534Z,18.40
2019-05-30T08:52:53.307Z,18.60
2019-05-30T08:55:24.270Z,18.60
2019-05-30T08:57:53.905Z,18.60
2019-05-30T09:00:23.750Z,18.60
2019-05-30T09:02:53.170Z,18.80
2019-05-30T09:05:22.723Z,18.50
2019-05-30T09:07:52.096Z,18.70
2019-05-30T09:10:21.761Z,18.90
2019-05-30T09:12:51.217Z,19.00
2019-05-30T09:15:22.067Z,19.20
2019-05-30T09:17:51.655Z,19.30
2019-05-30T09:20:21.366Z,19.20
2019-05-30T09:22:50.709Z,19.40
2019-05-30T09:25:20.891Z,19.40
2019-05-30T09:27:50.373Z,19.60
2019-05-30T09:30:20.564Z,19.70
2019-05-30T09:32:49.984Z,19.70
2019-05-30T09:35:19.895Z,19.80
2019-05-30T09:37:49.575Z,19.80
2019-05-30T09:40:20.079Z,20.00
2019-05-30T09:42:50.366Z,19.90
2019-05-30T09:45:21.185Z,20.10
2019-05-30T09:47:51.386Z,19.90
2019-05-30T09:50:21.095Z,19.80
2019-05-30T09:52:51.334Z,19.90
2019-05-30T09:55:21.655Z,19.90
2019-05-30T09:57:52.122Z,19.80
2019-05-30T10:00:23.903Z,19.90
2019-05-30T10:02:53.315Z,19.90
2019-05-30T10:05:24.579Z,20.00
2019-05-30T10:07:54.499Z,20.20
2019-05-30T10:10:24.485Z,20.50
2019-05-30T10:12:53.970Z,20.60
2019-05-30T10:15:23.868Z,20.80
2019-05-30T10:17:54.579Z,20.80
2019-05-30T10:20:24.698Z,20.90
2019-05-30T10:22:54.134Z,21.10
2019-05-30T10:25:23.966Z,21.30
2019-05-30T10:27:54.794Z,21.40
2019-05-30T10:30:26.966Z,20.90
2019-05-30T10:32:56.414Z,20.80
2019-05-30T10:35:29.682Z,21.00
2019-05-30T10:37:57.749Z,21.50
2019-05-30T10:40:31.817Z,21.70
2019-05-30T10:42:59.352Z,22.20
2019-05-30T10:45:29.028Z,22.50
2019-05-30T10:47:59.011Z,22.40
2019-05-30T10:50:28.590Z,22.20
2019-05-30T10:52:58.529Z,22.10
2019-05-30T10:55:28.329Z,22.00
2019-05-30T10:57:59.535Z,21.80
2019-05-30T11:00:58.085Z,21.40
2019-05-30T11:03:28.461Z,20.60
2019-05-30T11:06:30.594Z,20.40
2019-05-30T11:09:02.243Z,20.50
2019-05-30T11:11:31.610Z,20.40
2019-05-30T11:14:01.023Z,20.60
2019-05-30T11:16:30.402Z,20.70
2019-05-30T11:18:59.814Z,20.70
2019-05-30T11:21:29.246Z,20.60
2019-05-30T11:23:58.587Z,20.30
2019-05-30T11:26:29.459Z,20.00
2019-05-30T11:28:58.889Z,20.00
2019-05-30T11:31:28.295Z,19.90
2019-05-30T11:33:57.642Z,20.20
2019-05-30T11:36:27.022Z,20.00
2019-05-30T11:38:57.424Z,19.80
2019-05-30T11:41:26.879Z,20.30
2019-05-30T11:43:57.719Z,20.60
2019-05-30T11:46:27.162Z,20.80
2019-05-30T11:48:57.776Z,20.70
2019-05-30T11:51:27.226Z,20.80
2019-05-30T11:53:56.634Z,20.90
2019-05-30T11:56:26.268Z,21.10
2019-05-30T11:58:55.979Z,21.00
2019-05-30T12:01:25.462Z,20.90
2019-05-30T12:03:56.541Z,20.70
2019-05-30T12:06:26.108Z,20.50
2019-05-30T12:08:55.516Z,20.70
2019-05-30T12:11:24.879Z,21.00
2019-05-30T12:13:55.178Z,21.40
2019-05-30T12:16:24.651Z,21.70
2019-05-30T12:18:54.085Z,22.10
2019-05-30T12:21:24.886Z,22.20
2019-05-30T12:23:54.547Z,22.20
2019-05-30T12:26:24.118Z,22.30
2019-05-30T12:28:54.091Z,22.60
2019-05-30T12:31:23.670Z,22.80
2019-05-30T12:33:54.108Z,22.60
2019-05-30T12:36:23.658Z,22.30
2019-05-30T12:38:54.216Z,22.40
2019-05-30T12:41:23.748Z,22.40
2019-05-30T12:43:53.166Z,22.70
2019-05-30T12:46:22.609Z,22.80
2019-05-30T12:48:53.179Z,22.50
2019-05-30T12:51:22.921Z,22.30
2019-05-30T12:53:52.299Z,21.70
2019-05-30T12:56:21.806Z,21.30
2019-05-30T12:58:51.145Z,21.20
2019-05-30T13:01:20.513Z,21.30
2019-05-30T13:03:49.838Z,21.50
2019-05-30T13:06:19.274Z,21.60
2019-05-30T13:08:48.626Z,21.50
2019-05-30T13:11:18.067Z,21.20
2019-05-30T13:13:47.484Z,21.20
2019-05-30T13:16:16.853Z,21.30
2019-05-30T13:18:46.289Z,21.30
2019-05-30T13:21:15.653Z,21.30
2019-05-30T13:23:45.128Z,21.30
2019-05-30T13:26:14.641Z,21.60
2019-05-30T13:28:44.047Z,21.80
2019-05-30T13:31:13.472Z,21.90
2019-05-30T13:33:42.883Z,22.10
2019-05-30T13:36:12.250Z,22.20
2019-05-30T13:38:41.656Z,22.20
2019-05-30T13:41:11.019Z,22.20
2019-05-30T13:43:40.360Z,22.40
2019-05-30T13:46:09.734Z,22.60
2019-05-30T13:48:40.035Z,22.40
2019-05-30T13:51:09.446Z,22.50
2019-05-30T13:53:38.861Z,22.70
2019-05-30T13:56:08.305Z,22.50
2019-05-30T13:58:37.651Z,22.00
2019-05-30T14:01:11.540Z,22.00
2019-05-30T14:03:38.306Z,22.20
2019-05-30T14:06:08.351Z,22.30
2019-05-30T14:08:41.560Z,22.30
2019-05-30T14:11:08.931Z,22.40
2019-05-30T14:13:38.274Z,22.30
2019-05-30T14:16:08.790Z,22.20
2019-05-30T14:18:38.301Z,22.10
2019-05-30T14:21:07.745Z,21.90
2019-05-30T14:23:37.099Z,21.80
2019-05-30T14:26:07.407Z,21.60
2019-05-30T14:28:36.918Z,21.70
2019-05-30T14:31:06.787Z,21.70
2019-05-30T14:33:36.277Z,21.50
2019-05-30T14:36:09.121Z,21.40
2019-05-30T14:38:36.792Z,21.50
2019-05-30T14:41:06.943Z,21.50
2019-05-30T14:43:36.377Z,21.60
2019-05-30T14:46:06.275Z,21.60
2019-05-30T14:48:36.247Z,21.50
2019-05-30T14:51:06.622Z,21.40
2019-05-30T14:53:36.043Z,21.50
2019-05-30T14:56:06.955Z,21.60
2019-05-30T14:58:36.380Z,21.60
2019-05-30T15:01:07.131Z,21.60
2019-05-30T15:03:36.506Z,21.70
2019-05-30T15:06:08.556Z,21.60
2019-05-30T15:08:37.182Z,21.60
2019-05-30T15:11:07.474Z,21.50
2019-05-30T15:13:37.214Z,21.40
2019-05-30T15:16:06.809Z,21.40
2019-05-30T15:18:36.179Z,21.50
2019-05-30T15:21:08.209Z,21.50
2019-05-30T15:23:37.751Z,21.60
2019-05-30T15:26:07.866Z,21.60
2019-05-30T15:28:37.501Z,21.50
2019-05-30T15:31:08.184Z,21.50
2019-05-30T15:33:37.756Z,21.50
2019-05-30T15:36:08.545Z,21.60
2019-05-30T15:38:38.097Z,21.50
2019-05-30T15:41:08.747Z,21.40
2019-05-30T15:43:38.344Z,21.30
2019-05-30T15:46:07.916Z,21.20
2019-05-30T15:48:37.446Z,21.30
2019-05-30T15:51:06.950Z,21.30
2019-05-30T15:53:36.681Z,21.60
2019-05-30T15:56:06.155Z,22.30
2019-05-30T15:58:35.523Z,23.50
2019-05-30T16:01:04.878Z,24.30
2019-05-30T16:03:34.251Z,25.20
2019-05-30T16:06:03.657Z,25.80
2019-05-30T16:08:33.029Z,26.90
2019-05-30T16:11:02.445Z,27.90
2019-05-30T16:13:31.835Z,28.60
2019-05-30T16:16:01.179Z,29.10
2019-05-30T16:18:30.552Z,29.20
2019-05-30T16:20:59.921Z,29.60
2019-05-30T16:23:29.362Z,29.70
2019-05-30T16:25:58.844Z,29.90
2019-05-30T16:28:28.293Z,29.50
2019-05-30T16:30:57.871Z,28.60
2019-05-30T16:33:27.450Z,29.20
2019-05-30T16:35:57.088Z,29.80
2019-05-30T16:38:26.501Z,29.80
2019-05-30T16:40:55.948Z,29.80
2019-05-30T16:43:26.588Z,31.00
2019-05-30T16:45:56.101Z,32.50
2019-05-30T16:48:26.630Z,33.00
2019-05-30T16:50:56.121Z,32.50
2019-05-30T16:53:25.955Z,32.90
2019-05-30T16:55:57.571Z,32.30
2019-05-30T16:58:27.177Z,32.70
2019-05-30T17:00:56.792Z,32.10
2019-05-30T17:03:26.287Z,31.50
2019-05-30T17:05:55.639Z,31.30
2019-05-30T17:08:26.259Z,31.00
2019-05-30T17:10:56.187Z,30.60
2019-05-30T17:13:25.910Z,30.00
2019-05-30T17:15:55.265Z,29.90
2019-05-30T17:18:24.861Z,29.80
2019-05-30T17:20:54.212Z,31.60
2019-05-30T17:23:24.848Z,32.30
2019-05-30T17:25:54.260Z,31.50
2019-05-30T17:28:24.415Z,30.80
2019-05-30T17:30:53.925Z,30.00
2019-05-30T17:33:23.983Z,29.80
2019-05-30T17:35:54.515Z,29.60
2019-05-30T17:38:24.599Z,29.60
2019-05-30T17:40:53.991Z,29.80
2019-05-30T17:43:24.940Z,29.40
2019-05-30T17:45:54.774Z,29.30
2019-05-30T17:48:24.206Z,29.00
2019-05-30T17:50:53.730Z,28.90
2019-05-30T17:53:23.956Z,29.00
2019-05-30T17:55:53.525Z,29.10
2019-05-30T17:58:23.914Z,28.90
2019-05-30T18:00:56.877Z,28.80
2019-05-30T18:03:24.522Z,28.30
2019-05-30T18:05:53.975Z,27.70
2019-05-30T18:08:23.400Z,26.60
2019-05-30T18:10:54.200Z,25.50
2019-05-30T18:13:43.010Z,24.30
2019-05-30T18:16:12.452Z,23.00
2019-05-30T18:18:41.867Z,22.10
2019-05-30T18:21:11.380Z,21.10
2019-05-30T18:23:40.867Z,20.20
2019-05-30T18:26:10.351Z,19.20
2019-05-30T18:28:39.748Z,18.70
2019-05-30T18:31:09.207Z,18.10
2019-05-30T18:33:38.557Z,17.60
2019-05-30T18:36:08.074Z,17.30
2019-05-30T18:38:37.429Z,16.80
2019-05-30T18:41:11.401Z,16.50
2019-05-30T18:43:38.222Z,16.10
2019-05-30T18:46:07.746Z,15.70
2019-05-30T18:48:37.276Z,15.60
2019-05-30T18:51:06.839Z,15.40
2019-05-30T18:53:36.725Z,15.10
2019-05-30T18:56:06.316Z,14.90
2019-05-30T18:58:35.746Z,14.60
2019-05-30T19:01:05.295Z,14.40
2019-05-30T19:03:35.001Z,14.20
2019-05-30T19:06:04.524Z,14.00
2019-05-30T19:08:34.227Z,13.80
2019-05-30T19:11:03.703Z,13.60
2019-05-30T19:13:33.229Z,13.50
2019-05-30T19:16:02.751Z,13.40
2019-05-30T19:18:32.280Z,13.30
2019-05-30T19:21:01.738Z,13.10
2019-05-30T19:23:32.045Z,13.00
2019-05-30T19:26:01.899Z,12.80
2019-05-30T19:28:32.329Z,12.70
2019-05-30T19:31:02.074Z,12.70
2019-05-30T19:33:31.424Z,12.60
2019-05-30T19:36:00.969Z,12.60
2019-05-30T19:38:31.284Z,12.60
2019-05-30T19:41:01.776Z,12.60
2019-05-30T19:43:31.744Z,12.60
2019-05-30T19:46:01.269Z,12.60
2019-05-30T19:48:30.707Z,12.60
2019-05-30T19:51:00.227Z,12.50
2019-05-30T19:53:30.773Z,12.50
2019-05-30T19:56:00.301Z,12.40
2019-05-30T19:58:29.649Z,12.40
2019-05-30T20:00:59.350Z,12.30
2019-05-30T20:03:38.512Z,12.20
2019-05-30T20:06:00.272Z,12.10
2019-05-30T20:08:44.759Z,11.90
2019-05-30T20:11:02.896Z,11.80
2019-05-30T20:13:33.071Z,11.60
2019-05-30T20:16:02.618Z,11.50
2019-05-30T20:18:33.251Z,11.40
2019-05-30T20:21:02.880Z,11.20
2019-05-30T20:23:46.816Z,11.10
2019-05-30T20:26:04.950Z,11.10
2019-05-30T20:28:34.822Z,11.00
2019-05-30T20:31:04.297Z,11.00
2019-05-30T20:33:34.446Z,11.00
2019-05-30T20:36:03.823Z,10.80
2019-05-30T20:38:34.446Z,10.70
2019-05-30T20:41:03.872Z,10.60
2019-05-30T20:43:33.422Z,10.60
2019-05-30T20:46:03.267Z,10.50
2019-05-30T20:48:32.722Z,10.50
2019-05-30T20:51:02.142Z,10.50
2019-05-30T20:53:31.573Z,10.40
2019-05-30T20:56:01.003Z,10.30
2019-05-30T20:58:30.398Z,10.20
2019-05-30T21:00:59.741Z,10.10
2019-05-30T21:03:29.243Z,10.00
2019-05-30T21:05:58.915Z,10.00
2019-05-30T21:08:28.371Z,9.90
2019-05-30T21:10:59.524Z,9.90
2019-05-30T21:13:31.286Z,9.80
2019-05-30T21:16:02.763Z,9.70
2019-05-30T21:18:34.066Z,9.70
2019-05-30T21:21:03.399Z,9.60
2019-05-30T21:23:32.841Z,9.60
2019-05-30T21:26:02.269Z,9.60
2019-05-30T21:28:31.714Z,9.50
2019-05-30T21:31:01.136Z,9.50
2019-05-30T21:33:30.516Z,9.50
2019-05-30T21:35:59.827Z,9.40
2019-05-30T21:38:29.265Z,9.40
2019-05-30T21:40:58.612Z,9.40
2019-05-30T21:43:28.051Z,9.30
2019-05-30T21:45:57.412Z,9.30
2019-05-30T21:48:26.922Z,9.20
2019-05-30T21:50:56.251Z,9.20
2019-05-30T21:53:25.681Z,9.20
2019-05-30T21:55:55.019Z,9.10
2019-05-30T21:58:24.896Z,9.00
2019-05-30T22:01:19.707Z,8.90
2019-05-30T22:03:52.438Z,8.90
2019-05-30T22:06:21.994Z,8.90
2019-05-30T22:08:51.604Z,8.90
2019-05-30T22:11:21.640Z,8.90
2019-05-30T22:13:52.050Z,8.90
2019-05-30T22:16:21.497Z,8.90
2019-05-30T22:18:52.137Z,9.00
2019-05-30T22:21:21.699Z,8.90
2019-05-30T22:23:52.387Z,8.90
2019-05-30T22:26:22.377Z,8.90
2019-05-30T22:28:52.674Z,8.90
2019-05-30T22:31:22.377Z,8.90
2019-05-30T22:33:53.121Z,8.90
2019-05-30T22:36:22.644Z,8.90
2019-05-30T22:38:53.162Z,8.90
2019-05-30T22:41:22.772Z,8.90
2019-05-30T22:43:52.894Z,8.80
2019-05-30T22:46:22.395Z,8.80
2019-05-30T22:48:52.955Z,8.90
2019-05-30T22:51:22.624Z,8.90
2019-05-30T22:53:53.272Z,8.90
2019-05-30T22:56:22.674Z,8.90
2019-05-30T22:58:52.132Z,9.00
2019-05-30T23:01:21.558Z,9.00
2019-05-30T23:03:52.240Z,9.00
2019-05-30T23:06:22.139Z,9.20
2019-05-30T23:08:52.591Z,9.30
2019-05-30T23:11:22.070Z,9.40
2019-05-30T23:13:51.980Z,9.50
2019-05-30T23:16:21.430Z,9.60
2019-05-30T23:18:52.493Z,9.60
2019-05-30T23:21:22.083Z,9.70
2019-05-30T23:23:51.865Z,9.70
2019-05-30T23:26:22.819Z,9.80
2019-05-30T23:28:52.250Z,9.80
2019-05-30T23:31:21.867Z,9.80
2019-05-30T23:33:52.395Z,9.70
2019-05-30T23:36:21.830Z,9.80
2019-05-30T23:38:51.269Z,9.80
2019-05-30T23:41:20.604Z,9.80
2019-05-30T23:43:58.048Z,9.80
2019-05-30T23:46:21.100Z,9.80
2019-05-30T23:48:51.532Z,9.80
2019-05-30T23:51:20.953Z,9.90
2019-05-30T23:53:50.316Z,9.90
2019-05-30T23:56:19.720Z,9.90
2019-05-30T23:58:50.411Z,10.00
